createdAt,value
2022-09-28T00:01:17.050Z,11.90
2022-09-28T00:03:47.062Z,11.90
2022-09-28T00:06:17.033Z,11.80
2022-09-28T00:08:45.117Z,11.80
2022-09-28T00:11:15.550Z,11.80
2022-09-28T00:13:45.201Z,11.70
2022-09-28T00:16:15.075Z,11.70
2022-09-28T00:18:43.591Z,11.70
2022-09-28T00:21:14.756Z,11.70
2022-09-28T00:23:57.679Z,11.70
2022-09-28T00:26:26.225Z,11.70
2022-09-28T00:28:54.686Z,11.60
2022-09-28T00:31:25.093Z,11.60
2022-09-28T00:33:57.071Z,11.60
2022-09-28T00:36:31.409Z,11.50
2022-09-28T00:39:10.467Z,11.60
2022-09-28T00:41:45.426Z,11.50
2022-09-28T00:44:37.844Z,11.50
2022-09-28T00:47:26.712Z,11.40
2022-09-28T00:49:59.148Z,11.50
2022-09-28T00:52:34.524Z,11.40
2022-09-28T00:55:07.697Z,11.40
2022-09-28T00:57:37.476Z,11.40
2022-09-28T01:00:07.085Z,11.40
2022-09-28T01:02:37.947Z,11.30
2022-09-28T01:05:12.418Z,11.30
2022-09-28T01:07:44.241Z,11.30
2022-09-28T01:10:13.112Z,11.30
2022-09-28T01:12:41.126Z,11.30
2022-09-28T01:15:09.898Z,11.20
2022-09-28T01:17:52.483Z,11.20
2022-09-28T01:20:43.858Z,11.20
2022-09-28T01:23:43.895Z,11.10
2022-09-28T01:26:47.950Z,11.20
2022-09-28T01:29:21.356Z,11.10
2022-09-28T01:31:53.858Z,11.10
2022-09-28T01:34:28.580Z,11.10
2022-09-28T01:37:00.094Z,11.10
2022-09-28T01:39:33.691Z,11.10
2022-09-28T01:42:09.369Z,11.10
2022-09-28T01:44:42.741Z,11.10
2022-09-28T01:47:14.040Z,11.10
2022-09-28T01:49:46.286Z,11.10
2022-09-28T01:52:19.041Z,11.10
2022-09-28T01:54:51.977Z,11.10
2022-09-28T01:57:26.984Z,11.10
2022-09-28T02:00:00.853Z,11.10
2022-09-28T02:02:34.328Z,11.10
2022-09-28T02:05:08.837Z,11.10
2022-09-28T02:07:42.427Z,11.10
2022-09-28T02:10:16.369Z,11.10
2022-09-28T02:12:49.677Z,11.10
2022-09-28T02:15:21.268Z,11.10
2022-09-28T02:17:49.703Z,11.10
2022-09-28T02:20:18.328Z,11.10
2022-09-28T02:22:51.610Z,11.10
2022-09-28T02:25:29.341Z,11.10
2022-09-28T02:28:02.324Z,11.10
2022-09-28T02:30:31.640Z,11.10
2022-09-28T02:33:04.430Z,11.10
2022-09-28T02:35:34.879Z,11.10
2022-09-28T02:38:03.326Z,11.10
2022-09-28T02:40:34.686Z,11.10
2022-09-28T02:43:15.110Z,11.10
2022-09-28T02:45:55.883Z,11.10
2022-09-28T02:48:52.231Z,11.00
2022-09-28T02:51:35.707Z,11.10
2022-09-28T02:54:18.982Z,11.00
2022-09-28T02:57:11.354Z,11.00
2022-09-28T02:59:50.494Z,11.10
2022-09-28T03:02:29.049Z,11.00
2022-09-28T03:05:16.263Z,11.00
2022-09-28T03:07:53.329Z,11.00
2022-09-28T03:10:26.598Z,11.00
2022-09-28T03:12:56.080Z,11.00
2022-09-28T03:15:27.456Z,10.90
2022-09-28T03:17:55.736Z,10.90
2022-09-28T03:20:23.813Z,10.80
2022-09-28T03:23:12.321Z,10.80
2022-09-28T03:25:39.893Z,10.80
2022-09-28T03:28:07.906Z,10.70
2022-09-28T03:30:37.260Z,10.70
2022-09-28T03:33:06.948Z,10.60
2022-09-28T03:35:34.954Z,10.60
2022-09-28T03:38:02.956Z,10.60
2022-09-28T03:40:31.028Z,10.50
2022-09-28T03:43:00.228Z,10.50
2022-09-28T03:45:28.324Z,10.50
2022-09-28T03:47:57.726Z,10.40
2022-09-28T03:50:25.777Z,10.40
2022-09-28T03:52:54.306Z,10.40
2022-09-28T03:55:22.290Z,10.30
2022-09-28T03:57:55.673Z,10.30
2022-09-28T04:00:24.089Z,10.20
2022-09-28T04:02:52.095Z,10.20
2022-09-28T04:05:21.431Z,10.20
2022-09-28T04:07:49.621Z,10.10
2022-09-28T04:10:17.797Z,10.10
2022-09-28T04:12:45.947Z,10.00
2022-09-28T04:15:14.880Z,10.00
2022-09-28T04:17:44.811Z,10.00
2022-09-28T04:20:12.759Z,9.90
2022-09-28T04:22:42.502Z,9.90
2022-09-28T04:25:11.173Z,9.90
2022-09-28T04:27:56.600Z,9.80
2022-09-28T04:30:24.696Z,9.80
2022-09-28T04:32:52.699Z,9.80
2022-09-28T04:35:21.012Z,9.80
2022-09-28T04:37:50.364Z,9.70
2022-09-28T04:40:18.394Z,9.70
2022-09-28T04:42:46.449Z,9.70
2022-09-28T04:45:14.464Z,9.70
2022-09-28T04:47:42.464Z,9.70
2022-09-28T04:50:10.738Z,9.60
2022-09-28T04:52:39.014Z,9.60
2022-09-28T04:55:10.467Z,9.60
2022-09-28T04:57:38.482Z,9.60
2022-09-28T05:00:08.755Z,9.50
2022-09-28T05:02:36.890Z,9.60
2022-09-28T05:05:05.367Z,9.50
2022-09-28T05:07:33.696Z,9.50
2022-09-28T05:10:05.181Z,9.50
2022-09-28T05:12:34.543Z,9.50
2022-09-28T05:15:02.697Z,9.50
2022-09-28T05:17:31.725Z,9.50
2022-09-28T05:20:00.651Z,9.50
2022-09-28T05:22:28.644Z,9.60
2022-09-28T05:24:58.196Z,9.60
2022-09-28T05:27:26.215Z,9.60
2022-09-28T05:29:55.601Z,9.60
2022-09-28T05:32:23.571Z,9.60
2022-09-28T05:34:51.523Z,9.60
2022-09-28T05:37:19.541Z,9.60
2022-09-28T05:39:47.540Z,9.60
2022-09-28T05:42:15.518Z,9.60
2022-09-28T05:44:43.485Z,9.60
2022-09-28T05:47:12.855Z,9.60
2022-09-28T05:49:40.857Z,9.70
2022-09-28T05:52:08.865Z,9.80
2022-09-28T05:54:36.845Z,9.80
2022-09-28T05:57:06.858Z,9.80
2022-09-28T05:59:36.128Z,9.80
2022-09-28T06:02:04.987Z,9.90
2022-09-28T06:04:34.566Z,9.90
2022-09-28T06:07:02.536Z,9.90
2022-09-28T06:09:31.611Z,9.90
2022-09-28T06:33:27.506Z,10.80
2022-09-28T06:35:55.651Z,10.90
2022-09-28T06:38:26.386Z,11.10
2022-09-28T06:40:54.698Z,11.10
2022-09-28T06:43:22.710Z,11.20
2022-09-28T06:45:53.149Z,11.10
2022-09-28T06:48:21.533Z,11.00
2022-09-28T06:50:51.755Z,11.00
2022-09-28T06:53:19.849Z,11.10
2022-09-28T06:55:49.158Z,11.10
2022-09-28T06:58:19.675Z,11.10
2022-09-28T07:00:48.908Z,11.20
2022-09-28T07:03:19.178Z,11.50
2022-09-28T07:05:53.847Z,12.70
2022-09-28T07:08:24.290Z,13.70
2022-09-28T07:10:56.269Z,15.30
2022-09-28T07:16:14.246Z,17.60
2022-09-28T07:18:42.350Z,17.90
2022-09-28T07:21:24.479Z,18.60
2022-09-28T07:23:55.043Z,19.50
2022-09-28T07:26:24.646Z,19.50
2022-09-28T07:28:54.223Z,19.90
2022-09-28T07:31:25.184Z,20.10
2022-09-28T07:33:54.047Z,20.10
2022-09-28T07:36:23.805Z,20.50
2022-09-28T07:38:51.815Z,21.20
2022-09-28T07:41:26.930Z,21.50
2022-09-28T07:43:55.460Z,21.90
2022-09-28T07:46:23.558Z,22.40
2022-09-28T07:48:51.664Z,22.70
2022-09-28T07:51:21.228Z,22.90
2022-09-28T07:53:50.622Z,23.00
2022-09-28T07:56:20.166Z,23.20
2022-09-28T07:58:49.010Z,23.50
2022-09-28T08:01:17.684Z,23.60
2022-09-28T08:03:47.197Z,23.00
2022-09-28T08:06:17.163Z,22.60
2022-09-28T08:08:45.610Z,23.00
2022-09-28T08:11:16.666Z,22.50
2022-09-28T08:13:46.397Z,21.40
2022-09-28T08:16:14.721Z,20.60
2022-09-28T08:18:42.811Z,20.80
2022-09-28T08:21:29.400Z,21.50
2022-09-28T08:23:57.813Z,22.00
2022-09-28T08:26:27.196Z,22.20
2022-09-28T08:28:55.193Z,22.50
2022-09-28T08:31:25.966Z,21.90
2022-09-28T08:33:54.437Z,21.90
2022-09-28T08:36:22.441Z,21.90
2022-09-28T08:38:50.455Z,22.40
2022-09-28T08:41:23.502Z,22.80
2022-09-28T08:44:06.165Z,23.00
2022-09-28T08:46:38.088Z,23.10
2022-09-28T08:49:24.956Z,23.30
2022-09-28T08:52:00.453Z,23.30
2022-09-28T08:54:39.005Z,23.10
2022-09-28T08:57:12.438Z,23.00
2022-09-28T08:59:51.237Z,22.30
2022-09-28T09:02:25.415Z,22.50
2022-09-28T09:04:54.008Z,21.80
2022-09-28T09:07:58.415Z,21.10
2022-09-28T09:10:47.743Z,20.60
2022-09-28T09:13:33.970Z,20.80
2022-09-28T09:16:12.543Z,21.40
2022-09-28T09:18:50.230Z,22.10
2022-09-28T09:21:33.327Z,21.80
2022-09-28T09:24:07.595Z,22.40
2022-09-28T09:26:39.559Z,21.40
2022-09-28T09:29:22.908Z,20.90
2022-09-28T09:32:10.309Z,20.50
2022-09-28T09:34:54.907Z,20.20
2022-09-28T09:37:35.520Z,20.00
2022-09-28T09:40:19.136Z,19.90
2022-09-28T09:43:02.060Z,19.90
2022-09-28T09:45:46.326Z,19.90
2022-09-28T09:48:20.594Z,20.10
2022-09-28T09:50:51.594Z,20.00
2022-09-28T09:53:28.835Z,19.80
2022-09-28T09:56:00.920Z,19.80
2022-09-28T09:58:35.513Z,20.00
2022-09-28T10:01:10.283Z,20.50
2022-09-28T10:03:44.065Z,21.10
2022-09-28T10:06:15.500Z,21.60
2022-09-28T10:08:49.357Z,21.90
2022-09-28T10:11:21.582Z,22.00
2022-09-28T10:13:49.780Z,21.50
2022-09-28T10:16:19.451Z,21.50
2022-09-28T10:18:49.569Z,21.90
2022-09-28T10:21:21.510Z,22.00
2022-09-28T10:23:55.707Z,22.00
2022-09-28T10:26:28.510Z,22.00
2022-09-28T10:29:01.226Z,21.90
2022-09-28T10:31:38.516Z,21.80
2022-09-28T10:34:08.921Z,21.70
2022-09-28T10:36:48.173Z,21.60
2022-09-28T10:39:34.461Z,21.50
2022-09-28T10:42:07.152Z,21.30
2022-09-28T10:44:37.229Z,21.20
2022-09-28T10:47:09.844Z,21.10
2022-09-28T10:49:47.294Z,21.00
2022-09-28T10:52:37.057Z,21.10
2022-09-28T10:55:25.181Z,21.10
2022-09-28T10:57:53.981Z,21.10
2022-09-28T11:00:38.585Z,21.20
2022-09-28T11:03:07.349Z,21.30
2022-09-28T11:05:38.722Z,21.30
2022-09-28T11:08:08.806Z,21.40
2022-09-28T11:10:37.288Z,21.40
2022-09-28T11:13:09.940Z,21.50
2022-09-28T11:15:43.745Z,21.70
2022-09-28T11:18:24.709Z,22.00
2022-09-28T11:21:11.212Z,22.00
2022-09-28T11:23:41.033Z,22.10
2022-09-28T11:26:17.654Z,22.30
2022-09-28T11:28:52.633Z,22.40
2022-09-28T11:31:28.243Z,22.50
2022-09-28T11:34:14.209Z,22.50
2022-09-28T11:37:11.679Z,22.50
2022-09-28T11:39:47.032Z,22.30
2022-09-28T11:42:27.829Z,22.40
2022-09-28T11:45:03.527Z,22.70
2022-09-28T11:47:46.279Z,22.90
2022-09-28T11:50:28.342Z,23.00
2022-09-28T11:53:10.765Z,23.00
2022-09-28T11:55:44.191Z,23.00
2022-09-28T11:58:18.899Z,22.90
2022-09-28T12:00:52.330Z,22.80
2022-09-28T12:03:24.789Z,22.90
2022-09-28T12:05:58.348Z,22.90
2022-09-28T12:08:30.497Z,23.00
2022-09-28T12:11:03.838Z,23.10
2022-09-28T12:13:36.189Z,23.10
2022-09-28T12:16:27.729Z,23.20
2022-09-28T12:21:39.709Z,23.30
2022-09-28T12:24:16.482Z,23.30
2022-09-28T12:26:53.096Z,23.30
2022-09-28T12:29:27.571Z,23.00
2022-09-28T12:32:04.210Z,23.10
2022-09-28T12:34:32.620Z,23.20
2022-09-28T12:37:14.486Z,23.20
2022-09-28T12:40:04.003Z,23.30
2022-09-28T12:42:46.477Z,23.40
2022-09-28T12:45:28.735Z,23.10
2022-09-28T12:48:25.904Z,22.70
2022-09-28T12:51:03.536Z,22.60
2022-09-28T12:53:55.004Z,22.70
2022-09-28T12:56:34.986Z,22.60
2022-09-28T12:59:15.072Z,22.20
2022-09-28T13:02:05.050Z,21.90
2022-09-28T13:04:47.251Z,21.60
2022-09-28T13:07:26.902Z,21.30
2022-09-28T13:10:05.815Z,21.10
2022-09-28T13:12:48.052Z,21.00
2022-09-28T13:15:41.547Z,20.90
2022-09-28T13:18:16.171Z,20.80
2022-09-28T13:20:59.706Z,20.60
2022-09-28T13:23:32.109Z,20.60
2022-09-28T13:26:09.767Z,20.60
2022-09-28T13:28:40.006Z,20.60
2022-09-28T13:31:09.097Z,20.50
2022-09-28T13:33:39.875Z,20.40
2022-09-28T13:36:42.486Z,20.30
2022-09-28T13:39:38.683Z,20.20
2022-09-28T13:42:09.459Z,20.10
2022-09-28T13:45:11.055Z,20.10
2022-09-28T13:47:52.916Z,19.90
2022-09-28T13:50:32.350Z,19.90
2022-09-28T13:53:12.779Z,19.90
2022-09-28T13:55:54.794Z,19.90
2022-09-28T13:58:27.969Z,19.80
2022-09-28T14:01:01.036Z,19.70
2022-09-28T14:03:46.064Z,19.70
2022-09-28T14:06:26.146Z,19.50
2022-09-28T14:09:26.061Z,19.40
2022-09-28T14:11:59.875Z,19.30
2022-09-28T14:14:49.759Z,19.20
2022-09-28T14:17:54.384Z,19.10
2022-09-28T14:20:31.337Z,19.10
2022-09-28T14:23:37.029Z,19.10
2022-09-28T14:26:30.780Z,18.90
2022-09-28T14:29:10.506Z,18.90
2022-09-28T14:31:43.466Z,18.80
2022-09-28T14:34:27.662Z,18.80
2022-09-28T14:37:14.455Z,18.70
2022-09-28T14:40:03.310Z,18.60
2022-09-28T14:42:31.706Z,18.50
2022-09-28T14:45:38.834Z,18.50
2022-09-28T14:48:20.420Z,18.30
2022-09-28T14:50:49.949Z,18.30
2022-09-28T14:53:25.856Z,18.30
2022-09-28T14:55:58.696Z,18.20
2022-09-28T14:58:29.699Z,18.20
2022-09-28T15:01:04.940Z,18.10
2022-09-28T15:03:36.506Z,18.10
2022-09-28T15:06:04.574Z,18.00
2022-09-28T15:08:41.074Z,17.90
2022-09-28T15:11:16.860Z,17.90
2022-09-28T15:13:46.642Z,17.80
2022-09-28T15:16:16.536Z,17.70
2022-09-28T15:19:15.634Z,17.70
2022-09-28T15:21:45.286Z,17.60
2022-09-28T15:24:28.988Z,17.60
2022-09-28T15:26:57.770Z,17.50
2022-09-28T15:29:31.240Z,17.40
2022-09-28T15:31:59.424Z,17.30
2022-09-28T15:34:47.225Z,17.20
2022-09-28T15:37:18.953Z,17.00
2022-09-28T15:39:48.709Z,16.90
2022-09-28T15:42:18.400Z,16.90
2022-09-28T15:45:03.315Z,16.80
2022-09-28T15:47:32.867Z,16.60
2022-09-28T15:50:04.017Z,16.70
2022-09-28T15:52:37.453Z,16.60
2022-09-28T15:55:21.739Z,16.60
2022-09-28T15:57:50.321Z,16.50
2022-09-28T16:00:27.349Z,16.50
2022-09-28T16:03:01.641Z,16.40
2022-09-28T16:05:42.902Z,16.40
2022-09-28T16:08:21.389Z,16.30
2022-09-28T16:11:05.638Z,16.40
2022-09-28T16:13:34.901Z,16.30
2022-09-28T16:16:05.763Z,16.20
2022-09-28T16:18:36.852Z,16.50
2022-09-28T16:21:27.604Z,16.60
2022-09-28T16:23:57.524Z,16.40
2022-09-28T16:26:33.606Z,16.30
2022-09-28T16:29:06.899Z,16.20
2022-09-28T16:31:35.035Z,16.20
2022-09-28T16:34:11.934Z,16.10
2022-09-28T16:36:45.483Z,16.00
2022-09-28T16:39:14.236Z,16.00
2022-09-28T16:41:47.902Z,15.90
2022-09-28T16:44:23.168Z,15.80
2022-09-28T16:46:53.859Z,15.80
2022-09-28T16:49:23.609Z,15.80
2022-09-28T16:51:51.654Z,15.70
2022-09-28T16:54:38.906Z,15.70
2022-09-28T16:57:10.462Z,15.70
2022-09-28T16:59:38.858Z,15.60
2022-09-28T17:02:46.174Z,15.60
2022-09-28T17:05:10.241Z,15.60
2022-09-28T17:07:38.457Z,15.50
2022-09-28T17:10:17.661Z,15.50
2022-09-28T17:12:47.544Z,15.40
2022-09-28T17:15:21.648Z,15.40
2022-09-28T17:17:50.470Z,15.40
2022-09-28T17:20:22.953Z,15.40
2022-09-28T17:22:51.141Z,15.40
2022-09-28T17:25:19.582Z,15.30
2022-09-28T17:27:50.112Z,15.30
2022-09-28T17:30:23.727Z,15.30
2022-09-28T17:32:53.720Z,15.30
2022-09-28T17:35:24.503Z,15.30
2022-09-28T17:37:53.009Z,15.30
2022-09-28T17:40:23.325Z,15.30
2022-09-28T17:42:56.031Z,15.20
2022-09-28T17:45:25.804Z,15.20
2022-09-28T17:47:53.933Z,15.20
2022-09-28T17:50:24.143Z,15.20
2022-09-28T17:52:53.134Z,15.10
2022-09-28T17:55:23.013Z,15.10
2022-09-28T17:57:52.506Z,15.10
2022-09-28T18:00:20.627Z,15.10
2022-09-28T18:02:48.689Z,15.10
2022-09-28T18:05:17.138Z,15.10
2022-09-28T18:07:47.810Z,15.10
2022-09-28T18:10:17.029Z,15.00
2022-09-28T18:12:47.955Z,15.00
2022-09-28T18:15:18.913Z,15.00
2022-09-28T18:17:47.003Z,15.00
2022-09-28T18:20:15.646Z,15.00
2022-09-28T18:22:43.666Z,15.00
2022-09-28T18:25:11.841Z,15.00
2022-09-28T18:27:41.902Z,15.00
2022-09-28T18:30:10.871Z,14.90
2022-09-28T18:32:43.230Z,14.90
2022-09-28T18:35:11.574Z,14.90
2022-09-28T18:37:40.858Z,14.80
2022-09-28T18:40:12.677Z,14.80
2022-09-28T18:42:41.036Z,14.80
2022-09-28T18:45:11.718Z,14.80
2022-09-28T18:47:41.294Z,14.70
2022-09-28T18:50:11.526Z,14.80
2022-09-28T18:52:40.249Z,14.70
2022-09-28T18:55:09.243Z,14.70
2022-09-28T18:57:37.279Z,14.70
2022-09-28T19:00:07.654Z,14.70
2022-09-28T19:02:36.346Z,14.60
2022-09-28T19:05:09.130Z,14.60
2022-09-28T19:07:37.155Z,14.60
2022-09-28T19:10:07.079Z,14.60
2022-09-28T19:12:35.108Z,14.50
2022-09-28T19:15:03.181Z,14.50
2022-09-28T19:17:31.197Z,14.50
2022-09-28T19:19:59.263Z,14.50
2022-09-28T19:22:28.840Z,14.50
2022-09-28T19:24:56.986Z,14.40
2022-09-28T19:27:27.805Z,14.40
2022-09-28T19:29:55.861Z,14.40
2022-09-28T19:32:23.860Z,14.40
2022-09-28T19:34:52.012Z,14.40
2022-09-28T19:37:20.114Z,14.40
2022-09-28T19:39:49.534Z,14.30
2022-09-28T19:42:17.580Z,14.40
2022-09-28T19:48:26.718Z,14.30
2022-09-28T19:50:59.063Z,14.30
2022-09-28T19:53:28.162Z,14.30
2022-09-28T19:55:58.354Z,14.20
2022-09-28T19:58:33.414Z,14.20
2022-09-28T20:01:01.543Z,14.10
2022-09-28T20:03:30.886Z,14.10
2022-09-28T20:05:59.243Z,14.10
2022-09-28T20:08:28.965Z,14.10
2022-09-28T20:10:59.609Z,14.10
2022-09-28T20:13:31.543Z,14.00
2022-09-28T20:16:04.480Z,14.00
2022-09-28T20:18:35.972Z,14.00
2022-09-28T20:21:04.460Z,13.90
2022-09-28T20:23:32.697Z,13.90
2022-09-28T20:26:00.692Z,13.80
2022-09-28T20:28:28.672Z,13.80
2022-09-28T20:31:02.101Z,13.80
2022-09-28T20:33:30.950Z,13.80
2022-09-28T20:36:05.606Z,13.70
2022-09-28T20:38:34.103Z,13.60
2022-09-28T20:41:03.061Z,13.50
2022-09-28T20:43:31.402Z,13.60
2022-09-28T20:50:06.588Z,13.60
2022-09-28T20:52:34.621Z,13.60
2022-09-28T20:55:04.959Z,13.60
2022-09-28T20:57:32.966Z,13.60
2022-09-28T21:00:01.139Z,13.60
2022-09-28T21:02:29.141Z,13.60
2022-09-28T21:04:57.135Z,13.60
2022-09-28T21:07:26.522Z,13.60
2022-09-28T21:09:54.677Z,13.50
2022-09-28T21:12:25.901Z,13.60
2022-09-28T21:14:54.355Z,13.50
2022-09-28T21:17:22.899Z,13.50
2022-09-28T21:19:50.882Z,13.50
2022-09-28T21:22:18.885Z,13.50
2022-09-28T21:24:48.240Z,13.50
2022-09-28T21:27:16.292Z,13.40
2022-09-28T21:29:58.142Z,13.50
2022-09-28T21:32:26.142Z,13.40
2022-09-28T21:34:54.249Z,13.50
2022-09-28T21:37:22.311Z,13.40
2022-09-28T21:39:52.073Z,13.40
2022-09-28T21:42:20.017Z,13.40
2022-09-28T21:44:47.988Z,13.40
2022-09-28T21:47:15.952Z,13.40
2022-09-28T21:49:43.935Z,13.40
2022-09-28T21:52:11.902Z,13.40
2022-09-28T21:54:41.765Z,13.40
2022-09-28T21:57:11.988Z,13.40
2022-09-28T21:59:39.962Z,13.30
2022-09-28T22:02:08.224Z,13.40
2022-09-28T22:04:36.463Z,13.30
2022-09-28T22:07:04.484Z,13.30
2022-09-28T22:09:32.473Z,13.30
2022-09-28T22:12:00.490Z,13.30
2022-09-28T22:14:29.878Z,13.30
2022-09-28T22:16:57.869Z,13.30
2022-09-28T22:19:25.942Z,13.30
2022-09-28T22:21:53.978Z,13.30
2022-09-28T22:24:24.020Z,13.20
2022-09-28T22:26:52.019Z,13.20
2022-09-28T22:29:21.549Z,13.20
2022-09-28T22:31:50.985Z,13.20
2022-09-28T22:34:19.113Z,13.20
2022-09-28T22:36:47.237Z,13.20
2022-09-28T22:39:15.597Z,13.20
2022-09-28T22:41:43.862Z,13.20
2022-09-28T22:44:11.855Z,13.20
2022-09-28T22:46:39.922Z,13.20
2022-09-28T22:49:11.626Z,13.10
2022-09-28T22:51:40.033Z,13.20
2022-09-28T22:54:08.261Z,13.10
2022-09-28T22:56:36.244Z,13.20
2022-09-28T22:59:04.411Z,13.20
2022-09-28T23:01:32.497Z,13.20
2022-09-28T23:04:00.862Z,13.10
2022-09-28T23:06:31.305Z,13.10
2022-09-28T23:08:59.742Z,13.10
2022-09-28T23:11:28.337Z,13.10
2022-09-28T23:13:57.764Z,13.10
2022-09-28T23:16:26.827Z,13.10
2022-09-28T23:18:56.223Z,13.10
2022-09-28T23:21:25.728Z,13.10
2022-09-28T23:23:56.793Z,13.00
2022-09-28T23:26:26.665Z,13.10
2022-09-28T23:28:55.379Z,13.00
2022-09-28T23:31:25.987Z,13.10
2022-09-28T23:33:58.572Z,13.00
2022-09-28T23:36:27.036Z,13.00
2022-09-28T23:38:57.497Z,13.00
2022-09-28T23:41:25.600Z,13.00
2022-09-28T23:43:53.616Z,12.90
2022-09-28T23:46:21.681Z,13.00
2022-09-28T23:48:49.716Z,12.90
2022-09-28T23:51:17.875Z,12.90
2022-09-28T23:53:46.224Z,12.90
2022-09-28T23:56:15.630Z,12.90
2022-09-28T23:58:43.753Z,12.90
